Time,TemperatureF,DewpointF,PressureIn,WindDirection,WindDirectionDegrees,WindSpeedMPH,WindSpeedGustMPH,Humidity,HourlyPrecipIn,Conditions,Clouds,dailyrainin,SoftwareType,DateUTC
2013-02-02 00:03:00,27.0,15.0,30.41,WNW,302,0.0,1.0,59,0.00,,,0.00,,2013-02-02 05:03:00,
2013-02-02 00:12:00,27.0,15.0,30.41,WNW,302,0.0,1.0,59,0.00,,,0.00,,2013-02-02 05:12:00,
2013-02-02 00:22:00,27.0,14.0,30.41,WNW,298,0.0,1.0,58,0.00,,,0.00,,2013-02-02 05:22:00,
2013-02-02 00:33:00,27.0,15.0,30.41,WNW,301,0.0,1.0,61,0.00,,,0.00,,2013-02-02 05:33:00,
2013-02-02 00:42:00,27.0,15.0,30.41,WNW,301,0.0,1.0,61,0.00,,,0.00,,2013-02-02 05:42:00,
2013-02-02 00:52:00,26.0,14.0,30.41,WNW,301,0.0,0.0,59,0.00,,,0.00,,2013-02-02 05:52:00,
2013-02-02 01:02:00,26.0,14.0,30.41,WNW,295,0.0,1.0,61,0.00,,,0.00,,2013-02-02 06:02:00,
2013-02-02 01:12:00,26.0,14.0,30.41,WNW,295,0.0,1.0,61,0.00,,,0.00,,2013-02-02 06:12:00,
2013-02-02 01:22:00,26.0,14.0,30.41,WNW,290,0.0,2.0,60,0.00,,,0.00,,2013-02-02 06:22:00,
2013-02-02 01:32:00,26.0,14.0,30.42,WNW,294,0.0,2.0,61,0.00,,,0.00,,2013-02-02 06:32:00,
2013-02-02 01:42:00,26.0,14.0,30.42,WNW,294,0.0,2.0,61,0.00,,,0.00,,2013-02-02 06:42:00,
2013-02-02 01:51:00,26.0,15.0,30.42,WNW,293,0.0,1.0,62,0.00,,,0.00,,2013-02-02 06:51:00,
2013-02-02 02:02:00,26.0,14.0,30.42,NW,311,0.0,1.0,61,0.00,,,0.00,,2013-02-02 07:02:00,
2013-02-02 02:12:00,26.0,15.0,30.41,WNW,295,0.0,1.0,63,0.00,,,0.00,,2013-02-02 07:12:00,
2013-02-02 02:21:00,26.0,15.0,30.41,WNW,295,0.0,1.0,63,0.00,,,0.00,,2013-02-02 07:21:00,
2013-02-02 02:32:00,26.0,15.0,30.41,WNW,293,0.0,2.0,62,0.00,,,0.00,,2013-02-02 07:32:00,
2013-02-02 02:42:00,26.0,15.0,30.41,WNW,293,0.0,2.0,62,0.00,,,0.00,,2013-02-02 07:42:00,
2013-02-02 02:51:00,25.0,13.0,30.42,WNW,295,0.0,1.0,59,0.00,,,0.00,,2013-02-02 07:51:00,
2013-02-02 03:01:00,25.0,13.0,30.41,NW,325,0.0,1.0,59,0.00,,,0.00,,2013-02-02 08:01:00,
2013-02-02 03:11:00,25.0,13.0,30.41,NW,325,0.0,1.0,59,0.00,,,0.00,,2013-02-02 08:11:00,
2013-02-02 03:21:00,25.0,13.0,30.41,NW,319,0.0,2.0,61,0.00,,,0.00,,2013-02-02 08:21:00,
2013-02-02 03:32:00,25.0,13.0,30.41,NW,319,0.0,2.0,61,0.00,,,0.00,,2013-02-02 08:32:00,
2013-02-02 03:42:00,25.0,13.0,30.41,NW,319,0.0,2.0,61,0.00,,,0.00,,2013-02-02 08:42:00,
2013-02-02 03:52:00,24.0,15.0,30.41,NNE,16,0.0,0.0,67,0.00,,,0.00,,2013-02-02 08:52:00,
2013-02-02 04:02:00,24.0,15.0,30.41,NNE,15,0.0,0.0,68,0.00,,,0.00,,2013-02-02 09:02:00,
2013-02-02 04:11:00,24.0,15.0,30.41,NNE,15,0.0,0.0,68,0.00,,,0.00,,2013-02-02 09:11:00,
2013-02-02 04:22:00,24.0,16.0,30.41,NW,316,0.0,0.0,70,0.00,,,0.00,,2013-02-02 09:22:00,
2013-02-02 04:32:00,24.0,15.0,30.41,WNW,283,0.0,0.0,68,0.00,,,0.00,,2013-02-02 09:32:00,
2013-02-02 04:42:00,24.0,15.0,30.41,WNW,283,0.0,0.0,68,0.00,,,0.00,,2013-02-02 09:42:00,
2013-02-02 04:52:00,24.0,15.0,30.41,WNW,284,0.0,0.0,68,0.00,,,0.00,,2013-02-02 09:52:00,
2013-02-02 05:02:00,24.0,15.0,30.42,WNW,285,0.0,0.0,68,0.00,,,0.00,,2013-02-02 10:02:00,
2013-02-02 05:11:00,24.0,15.0,30.42,WNW,285,0.0,0.0,68,0.00,,,0.00,,2013-02-02 10:11:00,
2013-02-02 05:21:00,23.0,14.0,30.42,WNW,286,0.0,0.0,69,0.00,,,0.00,,2013-02-02 10:21:00,
2013-02-02 05:32:00,23.0,15.0,30.42,WNW,287,0.0,0.0,70,0.00,,,0.00,,2013-02-02 10:32:00,
2013-02-02 05:42:00,23.0,15.0,30.42,WNW,287,0.0,0.0,70,0.00,,,0.00,,2013-02-02 10:42:00,
2013-02-02 05:52:00,23.0,15.0,30.42,WNW,294,0.0,1.0,70,0.00,,,0.00,,2013-02-02 10:52:00,
2013-02-02 06:02:00,23.0,15.0,30.42,WNW,294,0.0,1.0,71,0.00,,,0.00,,2013-02-02 11:02:00,
2013-02-02 06:11:00,23.0,15.0,30.42,WNW,294,0.0,1.0,71,0.00,,,0.00,,2013-02-02 11:11:00,
2013-02-02 06:22:00,23.0,14.0,30.42,NW,313,0.0,1.0,68,0.00,,,0.00,,2013-02-02 11:22:00,
2013-02-02 06:32:00,23.0,14.0,30.43,WNW,302,0.0,0.0,69,0.00,,,0.00,,2013-02-02 11:32:00,
2013-02-02 06:42:00,23.0,14.0,30.43,WNW,302,0.0,0.0,69,0.00,,,0.00,,2013-02-02 11:42:00,
2013-02-02 06:52:00,23.0,14.0,30.42,WNW,298,0.0,1.0,69,0.00,,,0.00,,2013-02-02 11:52:00,
2013-02-02 07:02:00,23.0,14.0,30.42,NNW,342,0.0,2.0,67,0.00,,,0.00,,2013-02-02 12:02:00,
2013-02-02 07:11:00,23.0,14.0,30.42,NNW,342,0.0,2.0,67,0.00,,,0.00,,2013-02-02 12:11:00,
2013-02-02 07:22:00,23.0,13.0,30.42,West,276,0.0,2.0,66,0.00,,,0.00,,2013-02-02 12:22:00,
2013-02-02 07:32:00,23.0,14.0,30.43,WNW,298,0.0,2.0,67,0.00,,,0.00,,2013-02-02 12:32:00,
2013-02-02 07:42:00,23.0,14.0,30.43,WNW,298,0.0,2.0,67,0.00,,,0.00,,2013-02-02 12:42:00,
2013-02-02 07:52:00,24.0,14.0,30.43,WNW,291,0.0,2.0,64,0.00,,,0.00,,2013-02-02 12:52:00,
2013-02-02 08:03:00,26.0,14.0,30.43,WNW,285,1.0,3.0,61,0.00,,,0.00,,2013-02-02 13:03:00,
2013-02-02 08:11:00,26.0,14.0,30.43,WNW,285,1.0,3.0,61,0.00,,,0.00,,2013-02-02 13:11:00,
2013-02-02 08:22:00,27.0,15.0,30.43,WNW,302,0.0,2.0,60,0.00,,,0.00,,2013-02-02 13:22:00,
2013-02-02 08:33:00,28.0,16.0,30.43,WNW,302,0.0,2.0,59,0.00,,,0.00,,2013-02-02 13:33:00,
2013-02-02 08:42:00,28.0,16.0,30.43,WNW,302,0.0,2.0,59,0.00,,,0.00,,2013-02-02 13:42:00,
2013-02-02 08:52:00,29.0,16.0,30.43,NW,304,0.0,2.0,57,0.00,,,0.00,,2013-02-02 13:52:00,
2013-02-02 09:03:00,30.0,17.0,30.44,WNW,302,0.0,2.0,58,0.00,,,0.00,,2013-02-02 14:03:00,
2013-02-02 09:11:00,30.0,17.0,30.44,WNW,302,0.0,2.0,58,0.00,,,0.00,,2013-02-02 14:11:00,
2013-02-02 09:22:00,32.0,19.0,30.43,NNE,13,0.0,2.0,57,0.00,,,0.00,,2013-02-02 14:22:00,
2013-02-02 09:33:00,33.0,18.0,30.43,ESE,103,0.0,2.0,53,0.00,,,0.00,,2013-02-02 14:33:00,
2013-02-02 09:42:00,33.0,18.0,30.43,ESE,103,0.0,2.0,53,0.00,,,0.00,,2013-02-02 14:42:00,
2013-02-02 09:52:00,32.0,18.0,30.43,ESE,117,0.0,4.0,56,0.00,,,0.00,,2013-02-02 14:52:00,
2013-02-02 10:03:00,33.0,19.0,30.43,SE,136,1.0,3.0,57,0.00,,,0.00,,2013-02-02 15:03:00,
2013-02-02 10:12:00,33.0,19.0,30.43,SE,136,1.0,3.0,57,0.00,,,0.00,,2013-02-02 15:12:00,
2013-02-02 10:22:00,33.0,20.0,30.43,SE,129,1.0,4.0,58,0.00,,,0.00,,2013-02-02 15:22:00,
2013-02-02 10:33:00,34.0,20.0,30.43,SSE,152,1.0,3.0,55,0.00,,,0.00,,2013-02-02 15:33:00,
2013-02-02 10:42:00,34.0,20.0,30.43,SSE,152,1.0,3.0,55,0.00,,,0.00,,2013-02-02 15:42:00,
2013-02-02 10:52:00,35.0,20.0,30.43,SSE,166,1.0,3.0,54,0.00,,,0.00,,2013-02-02 15:52:00,
2013-02-02 11:03:00,35.0,19.0,30.43,ESE,121,2.0,3.0,51,0.00,,,0.00,,2013-02-02 16:03:00,
2013-02-02 11:12:00,35.0,19.0,30.43,ESE,121,2.0,3.0,51,0.00,,,0.00,,2013-02-02 16:12:00,
2013-02-02 11:23:00,35.0,20.0,30.42,SSE,150,3.0,6.0,55,0.00,,,0.00,,2013-02-02 16:23:00,
2013-02-02 11:32:00,35.0,20.0,30.42,SE,134,1.0,4.0,53,0.00,,,0.00,,2013-02-02 16:32:00,
2013-02-02 11:52:00,36.0,21.0,30.40,SE,137,2.0,5.0,54,0.00,,,0.00,,2013-02-02 16:52:00,
2013-02-02 12:03:00,36.0,20.0,30.40,SSE,167,2.0,6.0,52,0.00,,,0.00,,2013-02-02 17:03:00,
2013-02-02 12:22:00,37.0,20.0,30.38,SSE,167,2.0,4.0,50,0.00,,,0.00,,2013-02-02 17:22:00,
2013-02-02 12:32:00,37.0,21.0,30.37,SSW,197,2.0,4.0,52,0.00,,,0.00,,2013-02-02 17:32:00,
2013-02-02 12:52:00,37.0,18.0,30.36,SE,146,1.0,4.0,45,0.00,,,0.00,,2013-02-02 17:52:00,
2013-02-02 13:03:00,39.0,17.0,30.35,SSW,198,1.0,3.0,41,0.00,,,0.00,,2013-02-02 18:03:00,
2013-02-02 13:12:00,39.0,17.0,30.35,SSW,198,1.0,3.0,41,0.00,,,0.00,,2013-02-02 18:12:00,
2013-02-02 13:22:00,40.0,18.0,30.33,SW,222,2.0,3.0,41,0.00,,,0.00,,2013-02-02 18:22:00,
2013-02-02 13:32:00,42.0,16.0,30.32,SSW,208,1.0,3.0,35,0.00,,,0.00,,2013-02-02 18:32:00,
2013-02-02 13:42:00,42.0,16.0,30.32,SSW,208,1.0,3.0,35,0.00,,,0.00,,2013-02-02 18:42:00,
2013-02-02 13:52:00,41.0,14.0,30.31,SSW,211,1.0,4.0,33,0.00,,,0.00,,2013-02-02 18:52:00,
2013-02-02 14:02:00,41.0,14.0,30.30,SE,131,1.0,2.0,33,0.00,,,0.00,,2013-02-02 19:02:00,
2013-02-02 14:12:00,41.0,14.0,30.30,SE,131,1.0,2.0,33,0.00,,,0.00,,2013-02-02 19:12:00,
2013-02-02 14:22:00,41.0,15.0,30.28,ESE,123,1.0,3.0,35,0.00,,,0.00,,2013-02-02 19:22:00,
2013-02-02 14:32:00,42.0,18.0,30.27,ESE,122,0.0,2.0,37,0.00,,,0.00,,2013-02-02 19:32:00,
2013-02-02 14:42:00,42.0,18.0,30.27,ESE,122,0.0,2.0,37,0.00,,,0.00,,2013-02-02 19:42:00,
2013-02-02 14:51:00,41.0,18.0,30.27,East,86,1.0,3.0,39,0.00,,,0.00,,2013-02-02 19:51:00,
2013-02-02 15:02:00,42.0,21.0,30.26,ESE,104,1.0,3.0,43,0.00,,,0.00,,2013-02-02 20:02:00,
2013-02-02 15:22:00,43.0,21.0,30.25,SE,129,1.0,3.0,41,0.00,,,0.00,,2013-02-02 20:22:00,
2013-02-02 15:32:00,43.0,23.0,30.25,SE,130,2.0,4.0,44,0.00,,,0.00,,2013-02-02 20:32:00,
2013-02-02 15:52:00,44.0,20.0,30.24,SSE,165,1.0,5.0,38,0.00,,,0.00,,2013-02-02 20:52:00,
2013-02-02 16:02:00,44.0,20.0,30.24,SSE,165,1.0,5.0,38,0.00,,,0.00,,2013-02-02 21:02:00,
2013-02-02 16:11:00,44.0,20.0,30.24,SSE,165,1.0,5.0,38,0.00,,,0.00,,2013-02-02 21:11:00,
2013-02-02 16:21:00,45.0,24.0,30.22,SSE,165,10.0,14.0,44,0.00,,,0.00,,2013-02-02 21:21:00,
2013-02-02 16:32:00,44.0,22.0,30.22,SSW,204,9.0,13.0,42,0.00,,,0.00,,2013-02-02 21:32:00,
2013-02-02 16:52:00,44.0,25.0,30.22,SSW,212,4.0,12.0,46,0.00,,,0.00,,2013-02-02 21:52:00,
2013-02-02 17:03:00,45.0,27.0,30.21,SSW,203,9.0,12.0,50,0.00,,,0.00,,2013-02-02 22:03:00,
2013-02-02 17:21:00,45.0,27.0,30.21,SW,226,7.0,11.0,49,0.00,,,0.00,,2013-02-02 22:21:00,
2013-02-02 17:32:00,45.0,28.0,30.20,SW,221,6.0,10.0,51,0.00,,,0.00,,2013-02-02 22:32:00,
2013-02-02 17:52:00,45.0,29.0,30.20,SSW,212,6.0,10.0,54,0.00,,,0.00,,2013-02-02 22:52:00,
2013-02-02 18:02:00,44.0,31.0,30.20,SW,218,7.0,10.0,61,0.00,,,0.00,,2013-02-02 23:02:00,
2013-02-02 18:22:00,44.0,33.0,30.20,SSW,200,7.0,10.0,66,0.00,,,0.00,,2013-02-02 23:22:00,
2013-02-02 18:32:00,43.0,33.0,30.19,SSW,195,5.0,8.0,68,0.00,,,0.00,,2013-02-02 23:32:00,
2013-02-02 18:52:00,43.0,34.0,30.18,South,186,6.0,10.0,71,0.00,,,0.00,,2013-02-02 23:52:00,
2013-02-02 19:02:00,42.0,33.0,30.18,SSW,198,7.0,10.0,70,0.00,,,0.00,,2013-02-03 00:02:00,
2013-02-02 19:22:00,42.0,34.0,30.18,SSW,209,5.0,9.0,72,0.00,,,0.00,,2013-02-03 00:22:00,
2013-02-02 19:32:00,42.0,34.0,30.17,SW,228,4.0,6.0,73,0.00,,,0.00,,2013-02-03 00:32:00,
2013-02-02 19:52:00,41.0,33.0,30.16,SSW,195,2.0,4.0,74,0.00,,,0.00,,2013-02-03 00:52:00,
2013-02-02 20:02:00,41.0,33.0,30.16,ENE,65,0.0,4.0,73,0.00,,,0.00,,2013-02-03 01:02:00,
2013-02-02 20:11:00,39.0,32.0,30.16,NW,312,0.0,1.0,75,0.00,,,0.00,,2013-02-03 01:11:00,
2013-02-02 20:21:00,39.0,32.0,30.16,NW,312,0.0,1.0,75,0.00,,,0.00,,2013-02-03 01:21:00,
2013-02-02 20:32:00,39.0,33.0,30.14,East,93,1.0,2.0,78,0.00,,,0.00,,2013-02-03 01:32:00,
2013-02-02 20:42:00,39.0,33.0,30.14,East,93,1.0,2.0,78,0.00,,,0.00,,2013-02-03 01:42:00,
2013-02-02 20:52:00,41.0,34.0,30.13,SSE,156,2.0,4.0,77,0.00,,,0.00,,2013-02-03 01:52:00,
2013-02-02 21:01:00,42.0,35.0,30.12,SSE,161,2.0,4.0,77,0.00,,,0.00,,2013-02-03 02:01:00,
2013-02-02 21:21:00,42.0,36.0,30.10,SE,146,4.0,5.0,78,0.00,,,0.00,,2013-02-03 02:21:00,
2013-02-02 21:32:00,42.0,36.0,30.10,SSE,163,2.0,4.0,79,0.00,,,0.00,,2013-02-03 02:32:00,
2013-02-02 21:52:00,42.0,36.0,30.09,South,186,3.0,4.0,79,0.00,,,0.00,,2013-02-03 02:52:00,
2013-02-02 22:02:00,42.0,36.0,30.09,SSW,195,3.0,4.0,79,0.00,,,0.00,,2013-02-03 03:02:00,
2013-02-02 22:22:00,43.0,37.0,30.09,SSW,207,2.0,4.0,80,0.00,,,0.00,,2013-02-03 03:22:00,
2013-02-02 22:32:00,43.0,37.0,30.08,SSW,202,3.0,5.0,80,0.00,,,0.00,,2013-02-03 03:32:00,
2013-02-02 22:51:00,43.0,38.0,30.07,SSW,197,3.0,5.0,82,0.00,,,0.00,,2013-02-03 03:51:00,
2013-02-02 23:01:00,42.0,37.0,30.07,SW,235,0.0,3.0,82,0.00,,,0.00,,2013-02-03 04:01:00,
2013-02-02 23:21:00,40.0,35.0,30.07,North,349,0.0,1.0,83,0.00,,,0.00,,2013-02-03 04:21:00,
2013-02-02 23:32:00,39.0,35.0,30.07,NW,307,1.0,2.0,85,0.00,,,0.00,,2013-02-03 04:32:00,
2013-02-02 23:42:00,39.0,35.0,30.07,NW,307,1.0,2.0,85,0.00,,,0.00,,2013-02-03 04:42:00,
2013-02-02 23:52:00,40.0,36.0,30.07,WNW,289,0.0,2.0,87,0.00,,,0.00,,2013-02-03 04:52:00,